Time;durP1;ratioP1;P1;durP2;ratioP2;P2;SDS_P1;SDS_P2;PMS_P1;PMS_P2;Temp;Humidity;BMP_temperature;BMP_pressure;BME280_temperature;BME280_humidity;BME280_pressure;Samples;Min_cycle;Max_cycle;Signal;HPM_P1;HPM_P2
2021/04/13 00:02:46;;;;;;;7.82;5.65;;;;;;;13.77;66.83;101266.53;5054399;28;20033;-72
2021/04/13 00:05:44;;;;;;;13.95;6.72;;;;;;;13.52;70.77;101261.81;5054620;28;20087;-72
2021/04/13 00:08:31;;;;;;;18.42;11.00;;;;;;;13.34;80.17;101268.31;5040237;28;20021;-72
2021/04/13 00:11:18;;;;;;;22.60;11.90;;;;;;;13.47;85.93;101266.31;5054513;28;20118;-72
2021/04/13 00:14:07;;;;;;;27.30;14.30;;;;;;;13.15;94.46;101260.81;5053754;28;20029;-73
2021/04/13 00:16:58;;;;;;;20.55;13.02;;;;;;;12.97;98.48;101256.75;5054577;28;20033;-72
2021/04/13 00:19:56;;;;;;;25.60;13.70;;;;;;;12.83;99.96;101261.34;5053924;28;20032;-73
2021/04/13 00:22:42;;;;;;;24.13;13.25;;;;;;;13.00;98.29;101254.06;5053324;28;20056;-73
2021/04/13 00:25:35;;;;;;;21.45;12.18;;;;;;;13.22;95.44;101258.00;5054462;28;20129;-72
2021/04/13 00:28:24;;;;;;;21.40;12.43;;;;;;;13.28;94.28;101255.28;5053344;28;20102;-72
2021/04/13 00:31:44;;;;;;;18.27;11.73;;;;;;;12.67;94.16;101261.66;5054227;28;20066;-72
2021/04/13 00:34:43;;;;;;;17.92;11.35;;;;;;;12.43;96.89;101252.44;5039326;28;20453;-72
2021/04/13 00:37:32;;;;;;;17.90;11.45;;;;;;;12.81;91.79;101243.88;5054099;28;20052;-72
2021/04/13 00:40:27;;;;;;;19.58;11.63;;;;;;;12.87;90.79;101244.63;5053625;28;20032;-73
2021/04/13 00:43:15;;;;;;;22.05;11.98;;;;;;;12.52;92.83;101240.91;5053989;28;20421;-73
2021/04/13 00:46:05;;;;;;;21.05;11.45;;;;;;;12.86;91.13;101234.16;5053709;28;20029;-73
2021/04/13 00:48:53;;;;;;;19.88;11.77;;;;;;;12.98;89.40;101228.69;5053513;28;20505;-73
2021/04/13 00:51:46;;;;;;;20.15;12.18;;;;;;;12.64;91.24;101233.69;5053657;28;20114;-72
2021/04/13 00:54:37;;;;;;;20.25;12.38;;;;;;;12.74;91.22;101223.88;5053907;28;20025;-73
2021/04/13 00:57:28;;;;;;;22.67;12.30;;;;;;;12.82;90.45;101221.97;5039493;28;20029;-73
2021/04/13 01:00:41;;;;;;;21.15;12.73;;;;;;;12.54;92.26;101223.34;5059293;28;20058;-72
2021/04/13 01:03:31;;;;;;;20.15;12.27;;;;;;;12.80;92.06;101218.47;5061024;28;20059;-73
2021/04/13 01:06:21;;;;;;;22.20;13.07;;;;;;;12.82;92.88;101222.81;5039133;28;20025;-73
2021/04/13 01:09:09;;;;;;;23.17;13.25;;;;;;;12.71;92.79;101211.66;5053410;28;20028;-73
2021/04/13 01:12:06;;;;;;;24.73;13.77;;;;;;;12.74;93.79;101200.22;5053578;28;20465;-72
2021/04/13 01:14:53;;;;;;;26.48;13.57;;;;;;;12.86;93.14;101198.19;5053529;28;20063;-73
2021/04/13 01:17:40;;;;;;;14.00;8.82;;;;;;;12.86;85.64;101192.94;5053507;28;20021;-73
2021/04/13 01:20:35;;;;;;;15.60;8.07;;;;;;;12.70;82.18;101188.84;5053508;28;20424;-73
2021/04/13 01:23:26;;;;;;;14.55;7.32;;;;;;;13.01;79.52;101191.78;5053273;28;20124;-73
2021/04/13 01:26:12;;;;;;;14.38;8.02;;;;;;;13.24;78.40;101187.81;5038325;28;20397;-72
2021/04/13 01:28:59;;;;;;;13.32;7.35;;;;;;;13.26;78.79;101183.38;5039193;28;20025;-73
2021/04/13 04:05:57;;;;;;;36.85;15.82;;;;;;;11.47;100.00;101159.38;5504219;23;20085;-72
2021/04/13 04:08:52;;;;;;;25.45;14.38;;;;;;;11.56;100.00;101153.09;5014698;28;20068;-73
2021/04/13 04:11:38;;;;;;;30.88;20.98;;;;;;;11.24;100.00;101158.81;5014901;28;20108;-72
2021/04/13 04:14:29;;;;;;;32.10;19.77;;;;;;;11.53;100.00;101154.03;5035137;28;20395;-73
2021/04/13 04:17:15;;;;;;;30.40;17.00;;;;;;;11.53;100.00;101151.41;5034499;28;20034;-73
2021/04/13 04:20:08;;;;;;;22.70;14.07;;;;;;;11.47;100.00;101161.13;5035274;28;20045;-73
2021/04/13 04:22:54;;;;;;;31.65;18.33;;;;;;;11.62;100.00;101156.53;5034517;28;20068;-72
2021/04/13 04:25:48;;;;;;;25.73;14.40;;;;;;;11.53;100.00;101166.28;5033971;28;20033;-74
2021/04/13 04:28:39;;;;;;;21.75;13.82;;;;;;;11.48;100.00;101171.59;5034511;28;20049;-73
2021/04/13 04:31:37;;;;;;;20.20;12.70;;;;;;;11.65;100.00;101168.78;5034431;28;20029;-74
2021/04/13 04:34:23;;;;;;;30.38;15.32;;;;;;;11.41;100.00;101169.09;5034175;28;20120;-73
2021/04/13 04:37:19;;;;;;;29.88;15.73;;;;;;;11.70;100.00;101175.66;5020442;28;20049;-74
2021/04/13 04:40:26;;;;;;;31.23;15.75;;;;;;;11.10;100.00;101173.00;5034019;28;20029;-74
2021/04/13 04:43:14;;;;;;;26.70;16.02;;;;;;;11.14;100.00;101186.06;5033629;28;20039;-73
2021/04/13 04:46:00;;;;;;;28.05;15.77;;;;;;;11.00;100.00;101190.56;5033913;28;20029;-72
2021/04/13 04:49:06;;;;;;;24.55;14.27;;;;;;;10.62;100.00;101195.38;5033908;28;20166;-72
2021/04/13 04:51:54;;;;;;;30.73;15.93;;;;;;;10.55;100.00;101190.19;5033747;28;20029;-72
2021/04/13 04:54:40;;;;;;;29.75;15.40;;;;;;;10.63;100.00;101199.72;5035920;28;20048;-73
2021/04/13 04:57:26;;;;;;;27.73;14.32;;;;;;;10.88;100.00;101203.81;5032702;28;20034;-72
2021/04/13 05:00:12;;;;;;;24.75;14.27;;;;;;;10.71;100.00;101204.88;5020094;28;20037;-73
2021/04/13 05:02:58;;;;;;;24.08;14.88;;;;;;;11.15;100.00;101213.13;5034047;28;20469;-73
2021/04/13 05:05:44;;;;;;;26.33;14.90;;;;;;;11.14;100.00;101207.03;5034043;28;20072;-73
2021/04/13 05:08:29;;;;;;;22.75;13.98;;;;;;;11.39;100.00;101204.97;5019118;28;20022;-72
2021/04/13 05:11:15;;;;;;;19.83;12.95;;;;;;;11.37;100.00;101207.59;5033811;28;20469;-73
2021/04/13 05:14:01;;;;;;;15.93;11.45;;;;;;;11.86;100.00;101203.44;5033405;28;20411;-72
2021/04/13 05:16:49;;;;;;;17.90;11.52;;;;;;;12.14;100.00;101204.72;5033422;28;20137;-73
2021/04/13 05:19:35;;;;;;;19.38;11.98;;;;;;;12.29;100.00;101203.63;5033627;28;20403;-74
2021/04/13 05:22:21;;;;;;;20.17;11.35;;;;;;;12.00;100.00;101211.97;5031947;28;20026;-72
2021/04/13 05:25:07;;;;;;;16.15;10.18;;;;;;;12.31;100.00;101210.59;5034434;28;20104;-73
2021/04/13 05:27:53;;;;;;;15.00;9.55;;;;;;;12.70;99.63;101195.91;5033919;28;20447;-73
2021/04/13 05:30:38;;;;;;;15.32;10.15;;;;;;;12.58;99.90;101199.59;5033759;28;20029;-73
2021/04/13 05:33:25;;;;;;;17.67;9.73;;;;;;;12.90;97.32;101204.28;5032197;28;20108;-74
2021/04/13 05:36:11;;;;;;;16.42;10.02;;;;;;;13.08;93.63;101203.94;5032365;28;20343;-73
2021/04/13 05:38:58;;;;;;;13.73;8.80;;;;;;;13.51;90.45;101205.63;5018800;28;20358;-74
2021/04/13 05:41:44;;;;;;;15.95;9.70;;;;;;;13.48;88.26;101194.31;5033267;28;20327;-73
2021/04/13 05:44:30;;;;;;;21.20;10.00;;;;;;;13.58;87.16;101191.44;5033546;28;20025;-73
2021/04/13 05:47:17;;;;;;;15.48;9.88;;;;;;;13.07;89.25;101191.69;5032586;28;20056;-74
2021/04/13 05:50:06;;;;;;;18.20;9.93;;;;;;;14.03;85.12;101192.19;5032008;28;20103;-75
2021/04/13 05:52:52;;;;;;;16.83;10.32;;;;;;;14.41;81.92;101181.56;5032987;28;20139;-73
2021/04/13 05:55:38;;;;;;;15.63;10.25;;;;;;;14.05;81.84;101188.59;5033020;28;20490;-73
2021/04/13 05:58:31;;;;;;;19.52;12.25;;;;;;;14.02;79.96;101188.66;5032885;28;20393;-74
2021/04/13 06:01:20;;;;;;;35.83;22.63;;;;;;;14.45;78.87;101186.72;5033214;28;20030;-73
2021/04/13 06:04:13;;;;;;;16.67;11.18;;;;;;;14.22;78.24;101186.44;5032535;28;20026;-73
2021/04/13 06:06:59;;;;;;;19.73;9.75;;;;;;;14.05;79.00;101193.00;5033028;28;20060;-75
2021/04/13 06:09:45;;;;;;;16.17;10.25;;;;;;;13.95;78.41;101200.25;5017737;28;20025;-74
2021/04/13 06:12:31;;;;;;;11.13;8.27;;;;;;;14.07;76.10;101191.19;5033270;28;20374;-73
2021/04/13 06:15:18;;;;;;;12.30;7.30;;;;;;;13.96;76.71;101196.72;5031624;28;20026;-72
2021/04/13 06:18:05;;;;;;;16.88;7.60;;;;;;;14.21;74.05;101190.00;5019207;28;20037;-74
2021/04/13 06:20:52;;;;;;;14.45;8.65;;;;;;;14.11;75.85;101196.34;5022445;28;20072;-73
2021/04/13 06:23:38;;;;;;;13.07;8.73;;;;;;;14.08;78.70;101199.06;5037089;28;20448;-74
2021/04/13 06:26:27;;;;;;;12.27;8.30;;;;;;;14.62;77.20;101197.69;5022503;28;20022;-75
2021/04/13 06:29:13;;;;;;;17.08;9.38;;;;;;;14.77;77.52;101189.38;5035868;28;20025;-73
2021/04/13 06:31:59;;;;;;;14.80;10.57;;;;;;;15.34;74.65;101183.38;5036228;28;20029;-74
2021/04/13 06:34:44;;;;;;;19.35;12.98;;;;;;;15.17;71.53;101181.22;5035774;28;20029;-74
2021/04/13 06:37:30;;;;;;;19.60;10.10;;;;;;;15.62;69.37;101187.81;5035022;28;20044;-74
2021/04/13 06:40:25;;;;;;;22.48;10.02;;;;;;;15.73;68.78;101183.06;5037293;28;20370;-74
2021/04/13 06:43:11;;;;;;;16.15;9.73;;;;;;;15.85;68.24;101181.81;5036872;28;20091;-73
2021/04/13 06:46:18;;;;;;;16.05;9.85;;;;;;;16.51;67.40;101182.28;5036798;28;20029;-74
2021/04/13 06:49:43;;;;;;;15.20;10.07;;;;;;;16.22;65.39;101183.22;5036122;28;20043;-73
2021/04/13 06:52:47;;;;;;;18.90;10.45;;;;;;;16.67;65.41;101189.63;5022935;28;20427;-74
2021/04/13 06:56:05;;;;;;;16.67;10.43;;;;;;;16.79;65.09;101186.53;5035627;28;20029;-74
2021/04/13 06:59:15;;;;;;;17.60;10.05;;;;;;;16.88;63.21;101182.72;5015226;28;20521;-74
2021/04/13 07:02:09;;;;;;;15.80;10.13;;;;;;;16.71;63.57;101179.78;5021058;28;20417;-74
2021/04/13 07:05:17;;;;;;;15.60;10.20;;;;;;;16.99;61.47;101185.81;5021769;28;20060;-74
2021/04/13 07:08:20;;;;;;;22.88;11.90;;;;;;;17.21;62.51;101187.66;5036221;28;20113;-74
2021/04/13 07:11:14;;;;;;;15.77;10.82;;;;;;;16.90;62.20;101183.50;5035838;28;20025;-73
2021/04/13 07:14:12;;;;;;;21.98;12.55;;;;;;;16.64;64.19;101180.94;5035470;28;20029;-74
2021/04/13 07:17:33;;;;;;;18.80;11.13;;;;;;;16.81;64.12;101176.78;5035402;28;20025;-75
2021/04/13 07:20:39;;;;;;;27.17;11.50;;;;;;;16.90;64.98;101173.81;5021833;28;20026;-74
2021/04/13 07:23:37;;;;;;;23.85;11.80;;;;;;;17.25;63.87;101176.03;5035884;28;20069;-75
2021/04/13 07:26:32;;;;;;;22.88;10.60;;;;;;;16.77;66.07;101163.69;5035290;28;20021;-75
2021/04/13 07:29:24;;;;;;;24.00;10.65;;;;;;;17.15;64.97;101173.75;5022073;28;20021;-74
2021/04/13 07:32:16;;;;;;;20.08;10.02;;;;;;;17.33;63.40;101167.78;5035263;28;20029;-73
2021/04/13 07:35:05;;;;;;;28.75;10.48;;;;;;;17.71;60.46;101165.41;5035028;28;20033;-73
2021/04/13 07:37:53;;;;;;;19.48;9.13;;;;;;;17.56;60.55;101165.16;5034910;28;20032;-74
2021/04/13 07:40:46;;;;;;;18.35;9.23;;;;;;;18.53;58.19;101155.78;5034893;28;20530;-73
2021/04/13 07:43:46;;;;;;;21.40;9.40;;;;;;;18.65;57.55;101160.56;5020954;28;20040;-73
2021/04/13 07:47:02;;;;;;;20.23;9.77;;;;;;;18.53;58.12;101158.44;5035741;28;20098;-74
2021/04/13 07:49:58;;;;;;;22.63;11.23;;;;;;;18.19;59.67;101157.25;5034896;28;20029;-73
2021/04/13 07:53:07;;;;;;;20.58;10.27;;;;;;;18.51;59.03;101159.44;5034874;28;20037;-72
2021/04/13 07:56:01;;;;;;;16.25;10.02;;;;;;;18.76;57.10;101152.13;5035026;28;20034;-73
2021/04/13 07:58:54;;;;;;;18.08;8.60;;;;;;;18.46;57.74;101150.81;5034820;28;20140;-73
2021/04/13 08:01:43;;;;;;;15.15;8.57;;;;;;;19.14;56.51;101156.59;5035156;28;20021;-75
2021/04/13 08:04:34;;;;;;;17.95;9.25;;;;;;;18.68;58.18;101156.91;5033823;28;20025;-74
2021/04/13 08:07:27;;;;;;;18.75;9.68;;;;;;;18.71;57.06;101152.34;5021454;28;20086;-74
2021/04/13 08:10:36;;;;;;;16.65;9.48;;;;;;;19.20;56.71;101156.31;5034367;28;20029;-74
2021/04/13 08:13:29;;;;;;;21.42;9.82;;;;;;;20.09;54.67;101146.75;5035173;28;20370;-72
2021/04/13 08:16:33;;;;;;;18.52;10.60;;;;;;;20.01;54.30;101148.91;5034210;28;20044;-74
2021/04/13 08:19:32;;;;;;;23.20;10.05;;;;;;;20.40;52.87;101144.25;5034351;28;20095;-74
2021/04/13 08:22:21;;;;;;;27.10;12.13;;;;;;;20.86;50.85;101139.13;5034131;28;20033;-74
2021/04/13 08:25:10;;;;;;;35.95;12.10;;;;;;;20.36;51.57;101140.03;5034343;28;20087;-73
2021/04/13 08:28:05;;;;;;;31.63;13.55;;;;;;;21.02;50.51;101134.75;5034099;28;20041;-73
2021/04/13 08:34:26;;;;;;;25.45;11.43;;;;;;;21.07;49.64;101122.06;5034043;28;20071;-74
2021/04/13 08:37:41;;;;;;;21.48;11.15;;;;;;;21.24;50.03;101130.00;5018746;28;20026;-73
2021/04/13 08:40:35;;;;;;;27.33;11.68;;;;;;;20.98;50.29;101117.19;5033798;28;20067;-74
2021/04/13 08:43:35;;;;;;;25.48;11.93;;;;;;;21.85;48.73;101116.78;5020680;28;20107;-75
2021/04/13 08:46:58;;;;;;;31.38;11.13;;;;;;;21.52;49.19;101110.66;5019745;28;20026;-75
2021/04/13 08:49:57;;;;;;;25.00;11.63;;;;;;;21.75;49.13;101103.13;5034707;28;20386;-73
2021/04/13 08:52:51;;;;;;;23.15;10.70;;;;;;;22.85;46.74;101101.81;5033625;28;20175;-73
2021/04/13 08:55:36;;;;;;;22.55;10.75;;;;;;;22.48;46.36;101102.34;5033575;28;20029;-73
2021/04/13 08:58:41;;;;;;;19.73;10.63;;;;;;;22.32;46.19;101097.03;5033710;28;20077;-72
2021/04/13 09:01:37;;;;;;;22.13;10.57;;;;;;;22.53;45.78;101097.56;5019759;28;20036;-73
2021/04/13 09:04:30;;;;;;;27.08;10.18;;;;;;;23.39;44.02;101093.03;5033796;28;20025;-73
2021/04/13 09:07:29;;;;;;;21.05;10.25;;;;;;;23.00;44.04;101092.84;5034197;28;20441;-74
2021/04/13 09:10:30;;;;;;;23.75;10.02;;;;;;;22.05;46.36;101098.66;5034009;28;20037;-74
2021/04/13 09:13:22;;;;;;;24.70;10.40;;;;;;;21.92;46.49;101088.78;5034133;28;20029;-73
2021/04/13 09:16:10;;;;;;;18.52;10.10;;;;;;;21.58;47.34;101083.66;5033458;28;20446;-74
2021/04/13 09:19:03;;;;;;;24.50;10.95;;;;;;;21.98;47.12;101081.28;5032566;28;20037;-75
2021/04/13 09:21:52;;;;;;;25.30;11.38;;;;;;;22.79;45.29;101080.84;5033517;28;20099;-73
2021/04/13 09:24:41;;;;;;;23.27;10.57;;;;;;;22.62;45.61;101081.84;5033389;28;20026;-74
2021/04/13 09:27:37;;;;;;;16.85;9.73;;;;;;;22.85;44.73;101075.97;5020058;28;20029;-74
2021/04/13 09:30:28;;;;;;;19.90;10.23;;;;;;;23.67;43.23;101076.91;5019865;28;20096;-74
2021/04/13 09:33:19;;;;;;;21.80;9.63;;;;;;;23.36;44.30;101075.34;5033873;28;20040;-73
2021/04/13 09:36:22;;;;;;;18.90;8.95;;;;;;;23.10;45.09;101084.16;5032895;28;20064;-73
2021/04/13 09:39:42;;;;;;;22.08;9.73;;;;;;;22.84;46.61;101076.06;5031959;28;20091;-73
2021/04/13 09:43:05;;;;;;;16.83;8.75;;;;;;;23.48;44.97;101072.84;5032237;28;20022;-74
2021/04/13 09:46:09;;;;;;;17.50;9.35;;;;;;;23.04;45.74;101067.66;4954089;29;20181;-75
2021/04/13 09:49:38;;;;;;;17.40;9.70;;;;;;;22.14;46.94;101060.75;5033860;28;20369;-73
2021/04/13 09:52:45;;;;;;;20.05;8.88;;;;;;;22.42;46.34;101055.47;5033500;28;20121;-74
2021/04/13 09:55:53;;;;;;;18.23;8.18;;;;;;;22.53;46.30;101057.53;5022756;28;20036;-74
2021/04/13 09:59:30;;;;;;;18.45;7.60;;;;;;;22.64;46.33;101052.38;5023542;28;20114;-74
2021/04/13 10:02:44;;;;;;;16.55;7.85;;;;;;;22.37;46.51;101049.56;5014808;28;20048;-74
2021/04/13 10:05:35;;;;;;;11.85;7.40;;;;;;;22.40;45.89;101044.03;5037386;28;20053;-73
2021/04/13 10:08:31;;;;;;;13.35;7.20;;;;;;;22.38;45.63;101043.25;5037153;28;20026;-74
2021/04/13 10:11:34;;;;;;;18.52;8.25;;;;;;;22.35;46.69;101038.09;5037546;28;20044;-74
2021/04/13 10:14:39;;;;;;;12.82;7.07;;;;;;;22.24;46.01;101037.91;5037011;28;20513;-73
2021/04/13 10:18:03;;;;;;;25.27;7.65;;;;;;;21.82;47.21;101034.28;5035661;28;20030;-74
2021/04/13 10:21:12;;;;;;;16.95;6.63;;;;;;;22.36;45.60;101029.16;4965114;28;20103;-74
2021/04/13 10:24:03;;;;;;;13.75;6.90;;;;;;;22.34;45.70;101031.03;5036968;28;20033;-73
2021/04/13 10:27:13;;;;;;;13.02;5.65;;;;;;;22.12;47.02;101027.97;5037002;28;20447;-74
2021/04/13 10:30:23;;;;;;;12.30;6.00;;;;;;;22.08;46.68;101025.56;5035818;28;20087;-74
2021/04/13 10:33:39;;;;;;;10.27;5.78;;;;;;;22.33;47.17;101023.13;5036771;28;20036;-75
2021/04/13 10:37:02;;;;;;;12.23;5.28;;;;;;;22.50;46.58;101021.19;5022689;28;20067;-75
2021/04/13 10:40:42;;;;;;;10.77;6.10;;;;;;;22.57;46.23;101011.84;5021031;28;20036;-73
2021/04/13 10:43:55;;;;;;;12.73;5.60;;;;;;;22.70;46.20;101010.13;4948307;28;20377;-74
2021/04/13 10:46:57;;;;;;;8.75;6.40;;;;;;;22.45;47.10;101011.69;5022652;28;20087;-73
2021/04/13 10:50:25;;;;;;;10.13;5.68;;;;;;;22.96;46.39;101004.00;5036708;28;20362;-73
2021/04/13 10:53:59;;;;;;;8.98;5.78;;;;;;;22.74;45.95;100998.28;5035936;28;20029;-76
2021/04/13 10:57:25;;;;;;;9.45;5.75;;;;;;;22.80;45.09;101000.59;5022250;28;20029;-74
2021/04/13 11:00:53;;;;;;;11.30;5.40;;;;;;;22.86;44.72;100993.97;5021154;28;20018;-73
2021/04/13 11:03:59;;;;;;;9.00;5.40;;;;;;;23.06;44.10;100986.41;5016277;28;20044;-73
2021/04/13 11:07:04;;;;;;;8.48;5.28;;;;;;;23.79;42.86;100982.41;5034294;28;20058;-73
2021/04/13 11:10:16;;;;;;;12.52;5.78;;;;;;;24.12;42.32;100984.66;5021137;28;20017;-73
2021/04/13 11:13:31;;;;;;;9.38;5.60;;;;;;;23.37;43.04;100977.28;5035169;28;20033;-73
2021/04/13 11:16:46;;;;;;;9.90;5.50;;;;;;;23.42;42.44;100979.66;5035241;28;20031;-73
2021/04/13 11:19:38;;;;;;;8.68;5.60;;;;;;;22.83;42.86;100973.66;5036020;28;20116;-74
2021/04/13 11:22:57;;;;;;;9.77;6.18;;;;;;;22.81;42.82;100980.03;5020753;28;20052;-74
2021/04/13 11:25:58;;;;;;;7.97;5.82;;;;;;;22.94;42.36;100962.28;5028618;28;20095;-73
2021/04/13 11:28:56;;;;;;;8.18;5.88;;;;;;;22.72;42.78;100962.81;5035832;28;20060;-72
2021/04/13 11:31:42;;;;;;;10.77;5.90;;;;;;;23.42;41.63;100959.97;5034100;28;20044;-73
2021/04/13 11:34:46;;;;;;;11.95;6.50;;;;;;;23.11;41.64;100952.19;5021162;28;20053;-73
2021/04/13 11:37:35;;;;;;;10.98;6.60;;;;;;;23.32;41.73;100950.81;5020912;28;20026;-74
2021/04/13 11:40:35;;;;;;;11.50;5.68;;;;;;;23.37;41.09;100953.19;5034036;28;20108;-74
2021/04/13 11:43:24;;;;;;;10.45;6.18;;;;;;;23.91;40.79;100944.16;5034883;28;20025;-73
2021/04/13 11:46:19;;;;;;;11.05;8.55;;;;;;;23.78;39.93;100943.25;5035560;28;20450;-74
2021/04/13 11:49:35;;;;;;;10.23;7.05;;;;;;;23.93;40.54;100942.25;5035573;28;20064;-74
2021/04/13 11:52:40;;;;;;;10.60;6.57;;;;;;;24.23;39.44;100939.25;5034708;28;20038;-74
2021/04/13 11:55:29;;;;;;;9.77;6.00;;;;;;;24.72;38.98;100934.81;5035509;28;20108;-76
2021/04/13 11:58:31;;;;;;;12.30;7.20;;;;;;;24.76;38.56;100929.16;5035500;28;20414;-76
2021/04/13 12:01:18;;;;;;;15.10;9.05;;;;;;;24.46;39.37;100933.97;5020151;28;20029;-73
2021/04/13 12:04:05;;;;;;;13.75;9.77;;;;;;;24.73;38.78;100920.44;5034089;28;20036;-73
2021/04/13 12:06:59;;;;;;;19.10;11.18;;;;;;;24.45;38.38;100923.38;5035186;28;20045;-75
2021/04/13 12:09:48;;;;;;;18.67;12.30;;;;;;;24.40;39.11;100917.47;5034492;28;20092;-73
2021/04/13 12:12:34;;;;;;;26.42;17.30;;;;;;;24.48;38.36;100909.75;5034112;28;20061;-73
2021/04/13 12:15:20;;;;;;;26.90;19.63;;;;;;;23.88;39.43;100901.53;5034427;28;20036;-74
2021/04/13 12:18:36;;;;;;;33.72;15.48;;;;;;;23.51;39.98;100899.66;5020306;28;20501;-74
2021/04/13 12:21:22;;;;;;;16.73;12.02;;;;;;;23.91;39.32;100897.78;5020323;28;20033;-73
2021/04/13 12:24:20;;;;;;;15.88;10.50;;;;;;;23.82;39.60;100891.22;5020275;28;20057;-73
2021/04/13 12:27:28;;;;;;;16.08;10.02;;;;;;;23.95;39.43;100884.09;5020238;28;20025;-73
2021/04/13 12:30:29;;;;;;;13.75;8.23;;;;;;;23.47;39.26;100891.94;5020140;28;20099;-74
2021/04/13 12:33:26;;;;;;;12.95;7.93;;;;;;;24.14;38.66;100875.66;5034478;28;20025;-73
2021/04/13 12:37:01;;;;;;;10.50;7.55;;;;;;;24.53;38.66;100870.09;5020019;28;20029;-73
2021/04/13 12:39:51;;;;;;;15.20;7.55;;;;;;;24.44;38.96;100870.75;5016949;28;20051;-73
2021/04/13 12:42:39;;;;;;;13.52;7.85;;;;;;;24.36;38.41;100865.97;5033861;28;20115;-73
2021/04/13 12:45:29;;;;;;;14.07;7.40;;;;;;;24.64;38.00;100860.34;5034332;28;20361;-74
2021/04/13 12:48:22;;;;;;;9.82;6.30;;;;;;;24.00;38.22;100865.03;5034326;28;20040;-74
2021/04/13 12:51:13;;;;;;;10.82;6.53;;;;;;;23.78;38.34;100860.28;5033139;28;20021;-74
2021/04/13 12:54:18;;;;;;;11.63;6.60;;;;;;;23.96;38.81;100851.03;5034645;28;20025;-74
2021/04/13 12:57:20;;;;;;;9.82;5.85;;;;;;;24.11;39.02;100851.75;5034127;28;20365;-73
2021/04/13 13:00:09;;;;;;;11.05;6.03;;;;;;;24.42;38.21;100845.88;5032403;28;20099;-72
2021/04/13 13:02:54;;;;;;;9.43;5.78;;;;;;;24.28;38.44;100844.25;5033417;28;20041;-72
2021/04/13 13:05:40;;;;;;;10.95;6.07;;;;;;;24.41;38.35;100844.19;5032562;28;20046;-74
2021/04/13 13:08:28;;;;;;;13.32;5.88;;;;;;;23.80;39.07;100841.44;5032799;28;20032;-74
2021/04/13 13:11:16;;;;;;;10.80;6.10;;;;;;;24.02;38.88;100839.88;5033258;28;20053;-73
2021/04/13 13:14:05;;;;;;;15.50;5.57;;;;;;;24.21;37.54;100834.91;5019995;28;20033;-73
2021/04/13 13:16:56;;;;;;;9.40;5.55;;;;;;;24.12;37.39;100832.91;5033445;28;20041;-74
2021/04/13 13:19:44;;;;;;;9.90;6.18;;;;;;;23.91;37.54;100826.38;5020122;28;20033;-74
2021/04/13 13:22:31;;;;;;;10.55;5.97;;;;;;;24.45;37.07;100821.56;5034257;28;20037;-74
2021/04/13 13:25:36;;;;;;;14.95;6.07;;;;;;;24.49;36.88;100815.88;5036817;28;20462;-73
2021/04/13 13:28:23;;;;;;;11.77;5.60;;;;;;;24.27;36.62;100814.88;5035352;28;20030;-76
2021/04/13 13:31:19;;;;;;;10.48;5.60;;;;;;;23.77;37.35;100813.09;5037626;28;20354;-74
2021/04/13 13:34:09;;;;;;;14.73;6.13;;;;;;;24.06;37.48;100806.56;5037786;28;20488;-75
2021/04/13 13:36:55;;;;;;;9.80;5.30;;;;;;;23.49;36.88;100807.94;5037761;28;20033;-76
2021/04/13 13:39:41;;;;;;;10.10;5.50;;;;;;;23.29;37.17;100805.78;5038017;28;20025;-74
2021/04/13 13:42:28;;;;;;;10.10;5.30;;;;;;;23.83;37.20;100798.44;5037604;28;20450;-74
2021/04/13 13:45:27;;;;;;;8.75;5.15;;;;;;;23.84;36.57;100795.66;5038286;28;20361;-73
2021/04/13 13:48:22;;;;;;;12.38;5.72;;;;;;;23.79;35.91;100783.56;5038050;28;20040;-75
2021/04/13 13:51:23;;;;;;;16.13;8.02;;;;;;;24.09;35.62;100786.75;5035955;28;20421;-75
2021/04/13 13:54:22;;;;;;;15.95;8.35;;;;;;;23.97;35.52;100782.25;5037346;28;20092;-75
2021/04/13 13:57:29;;;;;;;10.70;7.00;;;;;;;23.39;35.85;100785.50;5037825;28;20076;-75
2021/04/13 14:00:51;;;;;;;13.18;6.65;;;;;;;23.62;35.50;100784.72;5036063;28;20445;-75
2021/04/13 14:03:39;;;;;;;11.63;5.70;;;;;;;23.65;35.58;100780.97;5037559;28;20033;-75
2021/04/13 14:06:29;;;;;;;12.68;6.75;;;;;;;23.52;35.82;100777.47;5022428;28;20469;-75
2021/04/13 14:09:17;;;;;;;8.57;5.95;;;;;;;23.50;35.82;100776.72;5009603;28;20123;-75
2021/04/13 14:12:32;;;;;;;9.68;5.70;;;;;;;23.13;36.59;100775.69;5023091;28;20361;-75
2021/04/13 14:15:19;;;;;;;14.65;7.05;;;;;;;23.12;37.01;100774.81;5037380;28;20060;-73
2021/04/13 14:18:08;;;;;;;11.73;6.35;;;;;;;23.18;36.35;100770.88;5022557;28;20370;-75
2021/04/13 14:21:01;;;;;;;14.63;8.90;;;;;;;23.75;35.98;100766.84;5035830;28;20409;-75
2021/04/13 14:23:50;;;;;;;10.05;5.53;;;;;;;23.48;35.99;100768.81;5036307;28;20065;-75
2021/04/13 14:26:36;;;;;;;13.30;6.38;;;;;;;23.16;36.18;100757.59;5035260;28;20103;-74
2021/04/13 14:29:24;;;;;;;13.02;6.15;;;;;;;23.68;36.00;100760.22;5037068;28;20029;-74
2021/04/13 14:32:11;;;;;;;8.00;5.25;;;;;;;23.52;35.65;100757.75;5036871;28;20053;-74
2021/04/13 14:34:57;;;;;;;12.02;6.75;;;;;;;23.89;35.54;100748.00;5022870;28;20029;-76
2021/04/13 14:37:44;;;;;;;32.05;7.90;;;;;;;23.93;36.48;100746.84;5022265;28;20068;-74
2021/04/13 14:40:31;;;;;;;15.02;6.15;;;;;;;23.57;36.46;100748.56;5020925;28;20061;-74
2021/04/13 14:43:17;;;;;;;13.10;6.18;;;;;;;23.73;36.53;100743.84;5021620;28;20481;-75
2021/04/13 14:46:04;;;;;;;10.93;5.82;;;;;;;23.44;37.35;100745.91;5021696;28;20124;-74
2021/04/13 14:48:50;;;;;;;8.57;6.05;;;;;;;23.52;37.03;100738.19;5036707;28;20021;-74
2021/04/13 14:51:36;;;;;;;13.82;6.28;;;;;;;23.61;36.56;100739.34;5035043;28;20104;-73
2021/04/13 14:54:22;;;;;;;10.65;6.18;;;;;;;23.33;37.53;100741.31;5036185;28;20347;-76
2021/04/13 14:57:08;;;;;;;10.23;6.20;;;;;;;23.47;37.35;100739.47;5035792;28;20026;-73
2021/04/13 14:59:54;;;;;;;12.07;5.78;;;;;;;23.52;37.24;100743.56;5034750;28;20025;-74
2021/04/13 15:02:40;;;;;;;9.20;5.95;;;;;;;23.58;37.15;100737.75;5035746;28;20029;-75
2021/04/13 15:05:26;;;;;;;12.60;6.40;;;;;;;23.48;37.71;100734.88;5036035;28;20049;-74
2021/04/13 15:08:18;;;;;;;14.43;6.10;;;;;;;23.08;39.96;100737.72;5021907;28;20098;-73
2021/04/13 15:11:04;;;;;;;12.60;5.93;;;;;;;23.26;40.09;100740.00;5035609;28;20025;-74
2021/04/13 15:13:50;;;;;;;13.10;6.00;;;;;;;23.08;41.59;100737.72;5021613;28;20033;-75
2021/04/13 15:16:36;;;;;;;12.55;6.88;;;;;;;23.00;42.44;100743.59;5035229;28;20025;-75
2021/04/13 15:19:22;;;;;;;13.95;8.00;;;;;;;22.89;43.13;100734.56;5035372;28;20060;-75
2021/04/13 15:22:08;;;;;;;12.68;7.30;;;;;;;23.05;43.22;100732.56;5035003;28;20466;-78
2021/04/13 15:24:55;;;;;;;13.10;7.60;;;;;;;22.85;44.43;100733.94;5034783;28;20523;-77
2021/04/13 15:27:43;;;;;;;10.35;6.63;;;;;;;22.81;45.03;100728.91;5035069;28;20112;-76
2021/04/13 15:30:30;;;;;;;19.95;7.32;;;;;;;22.80;45.35;100728.06;5035836;28;20478;-75
2021/04/13 15:33:28;;;;;;;15.48;7.90;;;;;;;22.53;46.51;100732.56;5035782;28;20021;-80
2021/04/13 15:36:26;;;;;;;17.13;9.60;;;;;;;22.27;48.14;100730.69;5034613;28;20033;-75
2021/04/13 15:39:12;;;;;;;19.13;9.80;;;;;;;22.30;48.71;100727.00;5036271;28;20397;-74
2021/04/13 15:42:06;;;;;;;16.45;9.50;;;;;;;21.88;51.19;100727.09;5034176;28;20099;-74
2021/04/13 15:44:57;;;;;;;15.13;8.77;;;;;;;21.91;52.77;100719.72;5036080;28;20417;-75
2021/04/13 15:47:46;;;;;;;18.00;8.90;;;;;;;22.12;53.71;100726.38;5035644;28;20352;-75
2021/04/13 15:50:32;;;;;;;16.80;9.15;;;;;;;22.16;54.86;100721.69;5035187;28;20037;-74
2021/04/13 15:53:18;;;;;;;18.27;9.35;;;;;;;21.98;56.54;100723.72;5033733;28;20099;-75
2021/04/13 15:56:04;;;;;;;16.45;10.55;;;;;;;21.51;60.53;100722.31;5035410;28;20451;-75
2021/04/13 15:58:50;;;;;;;18.85;12.10;;;;;;;21.60;62.53;100717.28;5020632;28;20132;-75
2021/04/13 16:01:37;;;;;;;22.08;12.45;;;;;;;20.99;66.90;100715.81;5020135;28;20340;-75